Neustadt-Glewe Airport


Codes: EDAN/
Name: Neustadt-Glewe Airport
City: Neustadt-Glewe
Country: Germany
Elevation: 115 ft.

Photos at Neustadt-Glewe Airport


   Photos courtesy of SpottingLog. You can add your own sightings and photos by signing up for a free trial today.



No photos found.

Weather at Neustadt-Glewe Airport


Time (UTC)DescriptionTempratureWindCloud coverageVisibilityPressureHumidity
21-Feb-2024 03:00Overcast Clouds8°C16 mph, SW100%10000m1018hPa86%
21-Feb-2024 06:00Overcast Clouds8°C13 mph, SW100%10000m1017hPa87%
21-Feb-2024 09:00Light Rain8°C11 mph, SW100%10000m1015hPa90%
21-Feb-2024 12:00Overcast Clouds9°C11 mph, SW100%10000m1014hPa84%
21-Feb-2024 15:00Overcast Clouds10°C11 mph, SW100%10000m1011hPa76%
21-Feb-2024 18:00Overcast Clouds8°C11 mph, S100%10000m1009hPa83%
21-Feb-2024 21:00Light Rain8°C13 mph, S100%10000m1006hPa79%
22-Feb-2024 00:00Light Rain7°C13 mph, S100%10000m1003hPa87%
22-Feb-2024 03:00Light Rain7°C13 mph, S100%10000m1000hPa92%
22-Feb-2024 06:00Light Rain7°C11 mph, S100%10000m997hPa94%
22-Feb-2024 09:00Light Rain8°C9 mph, SW100%10000m996hPa96%
22-Feb-2024 12:00Light Rain9°C9 mph, SW100%10000m994hPa94%
22-Feb-2024 15:00Broken Clouds11°C11 mph, S69%10000m990hPa77%
22-Feb-2024 18:00Broken Clouds9°C16 mph, S75%10000m987hPa89%
22-Feb-2024 21:00Light Rain10°C18 mph, S100%10000m983hPa91%
23-Feb-2024 00:00Light Rain7°C25 mph, SW100%10000m986hPa76%
23-Feb-2024 03:00Overcast Clouds5°C18 mph, W97%10000m991hPa69%
23-Feb-2024 06:00Broken Clouds4°C13 mph, SW82%10000m994hPa79%
23-Feb-2024 09:00Overcast Clouds6°C16 mph, SW100%10000m997hPa72%
23-Feb-2024 12:00Overcast Clouds8°C16 mph, SW91%10000m997hPa60%
23-Feb-2024 15:00Overcast Clouds8°C11 mph, S91%10000m998hPa62%
23-Feb-2024 18:00Overcast Clouds5°C9 mph, S93%10000m999hPa77%
23-Feb-2024 21:00Overcast Clouds4°C7 mph, S99%10000m999hPa84%
24-Feb-2024 00:00Overcast Clouds3°C4 mph, SE98%10000m999hPa86%
24-Feb-2024 03:00Overcast Clouds2°C7 mph, SE100%10000m998hPa89%
24-Feb-2024 06:00Overcast Clouds2°C7 mph, SE100%10000m998hPa88%
24-Feb-2024 09:00Overcast Clouds5°C9 mph, S100%10000m999hPa75%
24-Feb-2024 12:00Overcast Clouds7°C13 mph, SW98%10000m1000hPa66%
24-Feb-2024 15:00Broken Clouds7°C11 mph, SW83%10000m1002hPa66%
24-Feb-2024 18:00Light Rain5°C11 mph, S91%10000m1004hPa84%
24-Feb-2024 21:00Light Rain3°C9 mph, S43%10000m1006hPa91%
25-Feb-2024 00:00Few Clouds2°C7 mph, S24%10000m1007hPa90%
25-Feb-2024 03:00Broken Clouds1°C7 mph, SE64%10000m1006hPa89%
25-Feb-2024 06:00Scattered Clouds2°C9 mph, SE49%10000m1007hPa91%
25-Feb-2024 09:00Broken Clouds6°C11 mph, SE65%10000m1006hPa71%
25-Feb-2024 12:00Scattered Clouds10°C13 mph, S43%10000m1005hPa60%
25-Feb-2024 15:00Scattered Clouds9°C9 mph, SW39%10000m1005hPa64%
25-Feb-2024 18:00Broken Clouds5°C4 mph, S55%10000m1006hPa78%
25-Feb-2024 21:00Overcast Clouds3°C4 mph, SW90%10000m1007hPa81%
26-Feb-2024 00:00Scattered Clouds2°C2 mph, SE48%10000m1006hPa85%